Time;durP1;ratioP1;P1;durP2;ratioP2;P2;SDS_P1;SDS_P2;PMS_P1;PMS_P2;Temp;Humidity;BMP_temperature;BMP_pressure;BME280_temperature;BME280_humidity;BME280_pressure;Samples;Min_cycle;Max_cycle;Signal;HPM_P1;HPM_P2
2022/08/14 00:00:50;;;;;;;;;;;;;;;;;;5046107;28;19955;-76
2022/08/14 00:03:16;;;;;;;;;;;;;;;;;;5044249;28;20462;-74
2022/08/14 00:05:43;;;;;;;;;;;;;;;;;;5048743;28;20019;-75
2022/08/14 00:08:09;;;;;;;;;;;;;;;;;;5028402;28;19979;-74
2022/08/14 00:10:35;;;;;;;;;;;;;;;;;;5047156;28;20448;-75
2022/08/14 00:13:01;;;;;;;;;;;;;;;;;;5044658;28;19957;-75
2022/08/14 00:15:28;;;;;;;;;;;;;;;;;;5043569;28;19948;-77
2022/08/14 00:17:54;;;;;;;;;;;;;;;;;;5046753;28;20506;-77
2022/08/14 00:20:20;;;;;;;;;;;;;;;;;;5024355;28;19960;-76
2022/08/14 00:22:46;;;;;;;;;;;;;;;;;;5045894;28;19913;-76
2022/08/14 00:25:12;;;;;;;;;;;;;;;;;;5046333;28;19975;-76
2022/08/14 00:27:39;;;;;;;;;;;;;;;;;;5018805;28;20439;-77
2022/08/14 00:30:05;;;;;;;;;;;;;;;;;;5045587;28;19924;-77
2022/08/14 00:32:31;;;;;;;;;;;;;;;;;;5045951;28;20375;-76
2022/08/14 00:35:00;;;;;;;;;;;;;;;;;;5044921;28;20592;-76
2022/08/14 00:37:26;;;;;;;;;;;;;;;;;;5026310;28;19960;-76
2022/08/14 00:39:52;;;;;;;;;;;;;;;;;;5046984;28;20365;-76
2022/08/14 00:42:19;;;;;;;;;;;;;;;;;;5047073;28;19979;-75
2022/08/14 00:44:45;;;;;;;;;;;;;;;;;;5046613;28;19920;-75
2022/08/14 00:47:11;;;;;;;;;;;;;;;;;;5027238;28;19956;-76
2022/08/14 00:49:37;;;;;;;;;;;;;;;;;;5046426;28;20535;-75
2022/08/14 00:52:04;;;;;;;;;;;;;;;;;;5047065;28;20012;-75
2022/08/14 00:54:30;;;;;;;;;;;;;;;;;;5043011;28;19967;-76
2022/08/14 00:56:56;;;;;;;;;;;;;;;;;;5038285;28;19953;-76
2022/08/14 00:59:23;;;;;;;;;;;;;;;;;;5043902;28;19959;-75
2022/08/14 01:01:49;;;;;;;;;;;;;;;;;;5042715;28;20454;-76
2022/08/14 01:04:15;;;;;;;;;;;;;;;;;;5035655;28;20006;-74
2022/08/14 01:06:41;;;;;;;;;;;;;;;;;;5047222;28;19952;-76
2022/08/14 01:09:07;;;;;;;;;;;;;;;;;;5046856;28;19964;-76
2022/08/14 01:11:33;;;;;;;;;;;;;;;;;;5027835;28;20786;-77
2022/08/14 01:14:00;;;;;;;;;;;;;;;;;;5046832;28;19944;-76
2022/08/14 01:16:26;;;;;;;;;;;;;;;;;;5043281;28;19948;-77
2022/08/14 01:21:48;;;;;;;;;;;;;;;;;;4975122;28;19914;-76
2022/08/14 01:24:14;;;;;;;;;;;;;;;;;;5046668;28;19941;-76
2022/08/14 01:26:41;;;;;;;;;;;;;;;;;;5033558;28;19975;-76
2022/08/14 01:29:07;;;;;;;;;;;;;;;;;;5044698;28;19917;-75
2022/08/14 01:31:33;;;;;;;;;;;;;;;;;;5032977;28;21449;-75
2022/08/14 01:33:59;;;;;;;;;;;;;;;;;;5021570;28;19956;-75
2022/08/14 01:36:26;;;;;;;;;;;;;;;;;;5049380;28;19967;-75
2022/08/14 01:38:54;;;;;;;;;;;;;;;;;;5040814;28;19940;-78
2022/08/14 01:41:23;;;;;;;;;;;;;;;;;;5049239;28;20291;-77
2022/08/14 01:43:49;;;;;;;;;;;;;;;;;;5018236;28;19924;-75
2022/08/14 01:46:16;;;;;;;;;;;;;;;;;;5035897;28;19952;-76
2022/08/14 01:48:43;;;;;;;;;;;;;;;;;;5050649;28;20521;-76
2022/08/14 01:51:09;;;;;;;;;;;;;;;;;;5048693;28;20026;-76
2022/08/14 01:53:35;;;;;;;;;;;;;;;;;;5039292;28;19925;-76
2022/08/14 01:56:02;;;;;;;;;;;;;;;;;;5041615;28;20024;-76
2022/08/14 01:58:28;;;;;;;;;;;;;;;;;;5043853;28;19994;-76
2022/08/14 02:00:55;;;;;;;;;;;;;;;;;;5049899;28;20006;-76
2022/08/14 02:03:22;;;;;;;;;;;;;;;;;;5048930;28;19956;-75
2022/08/14 02:05:48;;;;;;;;;;;;;;;;;;5050504;28;20000;-76
2022/08/14 02:08:14;;;;;;;;;;;;;;;;;;5044433;28;20413;-74
2022/08/14 02:10:41;;;;;;;;;;;;;;;;;;5050789;28;19964;-76
2022/08/14 02:13:07;;;;;;;;;;;;;;;;;;5045116;28;19940;-76
2022/08/14 02:15:33;;;;;;;;;;;;;;;;;;5047865;28;20338;-76
2022/08/14 02:18:00;;;;;;;;;;;;;;;;;;5047494;28;19952;-75
2022/08/14 02:20:26;;;;;;;;;;;;;;;;;;5044111;28;19967;-75
2022/08/14 02:22:52;;;;;;;;;;;;;;;;;;5045384;28;19949;-75
2022/08/14 02:25:19;;;;;;;;;;;;;;;;;;5049217;28;20451;-75
2022/08/14 02:27:47;;;;;;;;;;;;;;;;;;5042067;28;19951;-76
2022/08/14 02:30:14;;;;;;;;;;;;;;;;;;5045256;28;19956;-76
2022/08/14 02:32:40;;;;;;;;;;;;;;;;;;5044739;28;20982;-77
2022/08/14 02:35:12;;;;;;;;;;;;;;;;;;5046029;28;19971;-77
2022/08/14 02:37:39;;;;;;;;;;;;;;;;;;5046663;28;20600;-76
2022/08/14 02:40:05;;;;;;;;;;;;;;;;;;5047784;28;19975;-76
2022/08/14 02:42:33;;;;;;;;;;;;;;;;;;5049267;28;19952;-76
2022/08/14 02:44:59;;;;;;;;;;;;;;;;;;5037708;28;19952;-77
2022/08/14 02:47:27;;;;;;;;;;;;;;;;;;5049121;28;19975;-75
2022/08/14 02:49:53;;;;;;;;;;;;;;;;;;5049853;28;19959;-76
2022/08/14 02:52:20;;;;;;;;;;;;;;;;;;5048752;28;20434;-76
2022/08/14 02:54:46;;;;;;;;;;;;;;;;;;5047733;28;19959;-76
2022/08/14 02:57:12;;;;;;;;;;;;;;;;;;5049554;28;19963;-76
2022/08/14 02:59:39;;;;;;;;;;;;;;;;;;5049023;28;19952;-76
2022/08/14 03:02:06;;;;;;;;;;;;;;;;;;5032430;28;19920;-75
2022/08/14 03:04:32;;;;;;;;;;;;;;;;;;5046732;28;19959;-77
2022/08/14 03:06:58;;;;;;;;;;;;;;;;;;5050291;28;19948;-76
2022/08/14 03:09:24;;;;;;;;;;;;;;;;;;5029823;28;20040;-75
2022/08/14 03:11:51;;;;;;;;;;;;;;;;;;5041561;28;19956;-76
2022/08/14 03:14:18;;;;;;;;;;;;;;;;;;5047004;28;20014;-75
2022/08/14 03:16:44;;;;;;;;;;;;;;;;;;5045386;28;19975;-75
2022/08/14 03:19:18;;;;;;;;;;;;;;;;;;5045386;28;19959;-77
2022/08/14 03:21:45;;;;;;;;;;;;;;;;;;5022017;28;20022;-82
2022/08/14 03:24:11;;;;;;;;;;;;;;;;;;5001963;28;19916;-78
2022/08/14 03:26:38;;;;;;;;;;;;;;;;;;5049973;28;19960;-78
2022/08/14 03:29:07;;;;;;;;;;;;;;;;;;5027801;28;19979;-76
2022/08/14 03:31:33;;;;;;;;;;;;;;;;;;5007384;28;20392;-76
2022/08/14 03:33:59;;;;;;;;;;;;;;;;;;5020941;28;19957;-75
2022/08/14 03:36:25;;;;;;;;;;;;;;;;;;5043325;28;19959;-74
2022/08/14 03:38:54;;;;;;;;;;;;;;;;;;5048774;28;19970;-76
2022/08/14 03:41:21;;;;;;;;;;;;;;;;;;5045938;28;19967;-75
2022/08/14 03:43:47;;;;;;;;;;;;;;;;;;5047502;28;20317;-75
2022/08/14 03:46:13;;;;;;;;;;;;;;;;;;5030065;28;19955;-75
2022/08/14 03:48:39;;;;;;;;;;;;;;;;;;5029175;28;20626;-76
2022/08/14 03:51:07;;;;;;;;;;;;;;;;;;5047071;28;19921;-74
2022/08/14 03:53:36;;;;;;;;;;;;;;;;;;5029601;28;19948;-75
2022/08/14 03:56:02;;;;;;;;;;;;;;;;;;5048922;28;19913;-75
2022/08/14 03:58:29;;;;;;;;;;;;;;;;;;5046191;28;20031;-74
2022/08/14 04:00:55;;;;;;;;;;;;;;;;;;5046952;28;19959;-75
2022/08/14 04:03:23;;;;;;;;;;;;;;;;;;5044412;28;19971;-75
2022/08/14 04:05:49;;;;;;;;;;;;;;;;;;5044796;28;20003;-75
2022/08/14 04:08:16;;;;;;;;;;;;;;;;;;5043094;28;20535;-75
2022/08/14 04:10:45;;;;;;;;;;;;;;;;;;5045417;28;19960;-75
2022/08/14 04:13:11;;;;;;;;;;;;;;;;;;5037636;28;19998;-76
2022/08/14 04:15:37;;;;;;;;;;;;;;;;;;5038646;28;19949;-78
2022/08/14 04:18:05;;;;;;;;;;;;;;;;;;5048075;28;20002;-77
2022/08/14 04:20:31;;;;;;;;;;;;;;;;;;5043233;28;19953;-76
2022/08/14 04:22:57;;;;;;;;;;;;;;;;;;5048625;28;20039;-76
2022/08/14 04:25:23;;;;;;;;;;;;;;;;;;5045302;28;20078;-76
2022/08/14 04:27:50;;;;;;;;;;;;;;;;;;5047957;28;20017;-75
2022/08/14 04:30:16;;;;;;;;;;;;;;;;;;5042946;28;19952;-75
2022/08/14 04:32:43;;;;;;;;;;;;;;;;;;5023692;28;19952;-76
2022/08/14 04:35:10;;;;;;;;;;;;;;;;;;5046828;28;19940;-76
2022/08/14 04:45:51;;;;;;;;;;;;;;;;;;5043361;28;20009;-76
2022/08/14 04:48:19;;;;;;;;;;;;;;;;;;5037919;28;19949;-75
2022/08/14 04:50:46;;;;;;;;;;;;;;;;;;5042991;28;19988;-76
2022/08/14 04:53:12;;;;;;;;;;;;;;;;;;5045506;28;19968;-75
2022/08/14 04:55:38;;;;;;;;;;;;;;;;;;5047339;28;19956;-74
2022/08/14 04:58:04;;;;;;;;;;;;;;;;;;5047161;28;20022;-74
2022/08/14 05:00:31;;;;;;;;;;;;;;;;;;5045929;28;20362;-73
2022/08/14 05:02:58;;;;;;;;;;;;;;;;;;5047007;28;20325;-74
2022/08/14 05:05:24;;;;;;;;;;;;;;;;;;5045941;28;20017;-77
2022/08/14 05:07:50;;;;;;;;;;;;;;;;;;5038176;28;19947;-74
2022/08/14 05:10:24;;;;;;;;;;;;;;;;;;5044742;28;19956;-75
2022/08/14 05:12:51;;;;;;;;;;;;;;;;;;5045756;28;19917;-75
2022/08/14 05:15:20;;;;;;;;;;;;;;;;;;5022743;28;19948;-79
2022/08/14 05:17:48;;;;;;;;;;;;;;;;;;5045378;28;20013;-80
2022/08/14 05:20:14;;;;;;;;;;;;;;;;;;5033223;28;19990;-80
2022/08/14 05:22:40;;;;;;;;;;;;;;;;;;5036868;28;20023;-80
2022/08/14 05:25:07;;;;;;;;;;;;;;;;;;5046206;28;20061;-80
2022/08/14 05:27:33;;;;;;;;;;;;;;;;;;5046145;28;19952;-80
2022/08/14 05:30:00;;;;;;;;;;;;;;;;;;5045139;28;20414;-79
2022/08/14 05:32:26;;;;;;;;;;;;;;;;;;5043244;28;19952;-78
2022/08/14 05:34:52;;;;;;;;;;;;;;;;;;5027246;28;19956;-79
2022/08/14 05:37:18;;;;;;;;;;;;;;;;;;5027683;28;19959;-78
2022/08/14 05:39:44;;;;;;;;;;;;;;;;;;5045950;28;20325;-80
2022/08/14 05:42:11;;;;;;;;;;;;;;;;;;5025763;28;19952;-76
2022/08/14 05:44:37;;;;;;;;;;;;;;;;;;5046971;28;20052;-79
2022/08/14 05:47:03;;;;;;;;;;;;;;;;;;5032963;28;19943;-80
2022/08/14 05:49:29;;;;;;;;;;;;;;;;;;5046376;28;20407;-80
2022/08/14 05:51:55;;;;;;;;;;;;;;;;;;5047433;28;19948;-80
2022/08/14 05:54:22;;;;;;;;;;;;;;;;;;5046055;28;19947;-80
2022/08/14 05:56:48;;;;;;;;;;;;;;;;;;5046403;28;19968;-79
2022/08/14 05:59:14;;;;;;;;;;;;;;;;;;5040341;28;20408;-79
2022/08/14 06:01:40;;;;;;;;;;;;;;;;;;5040351;28;19936;-79
2022/08/14 06:04:06;;;;;;;;;;;;;;;;;;5043917;28;19937;-80
2022/08/14 06:06:33;;;;;;;;;;;;;;;;;;5041146;28;19983;-80
2022/08/14 06:08:59;;;;;;;;;;;;;;;;;;5034958;28;19963;-79
2022/08/14 06:11:26;;;;;;;;;;;;;;;;;;5039642;28;20373;-81
2022/08/14 06:13:52;;;;;;;;;;;;;;;;;;5040464;28;19971;-79
2022/08/14 06:16:18;;;;;;;;;;;;;;;;;;5053213;28;19913;-80
2022/08/14 06:18:44;;;;;;;;;;;;;;;;;;5054841;28;19972;-80
2022/08/14 06:21:10;;;;;;;;;;;;;;;;;;5041705;28;20018;-79
2022/08/14 06:23:36;;;;;;;;;;;;;;;;;;5038379;28;19948;-78
2022/08/14 06:26:03;;;;;;;;;;;;;;;;;;5039450;28;20493;-80
2022/08/14 06:28:29;;;;;;;;;;;;;;;;;;5046933;28;19948;-79
2022/08/14 06:30:55;;;;;;;;;;;;;;;;;;5049633;28;20317;-78
2022/08/14 06:33:21;;;;;;;;;;;;;;;;;;5026825;28;19952;-78
2022/08/14 06:35:48;;;;;;;;;;;;;;;;;;5045349;28;20018;-80
2022/08/14 06:38:15;;;;;;;;;;;;;;;;;;5045677;28;20030;-80
2022/08/14 06:40:41;;;;;;;;;;;;;;;;;;5047160;28;19944;-82
2022/08/14 06:43:08;;;;;;;;;;;;;;;;;;5046584;28;19967;-83
2022/08/14 06:45:34;;;;;;;;;;;;;;;;;;5028255;28;20537;-82
2022/08/14 06:48:00;;;;;;;;;;;;;;;;;;5026561;28;19956;-83
2022/08/14 06:50:26;;;;;;;;;;;;;;;;;;5027570;28;20686;-81
2022/08/14 06:52:52;;;;;;;;;;;;;;;;;;5046950;28;19948;-82
2022/08/14 06:55:19;;;;;;;;;;;;;;;;;;5044396;28;19956;-81
2022/08/14 06:57:45;;;;;;;;;;;;;;;;;;5045580;28;20419;-78
2022/08/14 07:00:11;;;;;;;;;;;;;;;;;;5044782;28;20374;-77
2022/08/14 07:08:07;;;;;;;;;;;;;;;;;;5043484;28;19949;-77
2022/08/14 07:10:33;;;;;;;;;;;;;;;;;;5045282;28;19971;-76
2022/08/14 07:12:59;;;;;;;;;;;;;;;;;;5048832;28;19945;-76
2022/08/14 07:15:26;;;;;;;;;;;;;;;;;;5044475;28;20708;-75
2022/08/14 07:17:52;;;;;;;;;;;;;;;;;;5045624;28;20014;-76
2022/08/14 07:20:19;;;;;;;;;;;;;;;;;;5047487;28;19956;-77
2022/08/14 07:22:45;;;;;;;;;;;;;;;;;;5044041;28;19963;-78
2022/08/14 07:25:11;;;;;;;;;;;;;;;;;;5045695;28;19966;-77
2022/08/14 07:27:37;;;;;;;;;;;;;;;;;;5045098;28;19952;-79
2022/08/14 07:30:04;;;;;;;;;;;;;;;;;;5043907;28;20619;-78
2022/08/14 07:32:30;;;;;;;;;;;;;;;;;;5045530;28;19967;-78
2022/08/14 07:34:56;;;;;;;;;;;;;;;;;;5043033;28;19975;-79
2022/08/14 07:37:22;;;;;;;;;;;;;;;;;;5043496;28;19979;-78
2022/08/14 07:39:48;;;;;;;;;;;;;;;;;;5046816;28;19913;-80
2022/08/14 07:42:14;;;;;;;;;;;;;;;;;;5046018;28;20408;-77
2022/08/14 07:44:41;;;;;;;;;;;;;;;;;;5045345;28;19964;-78
2022/08/14 07:47:07;;;;;;;;;;;;;;;;;;5047361;28;20010;-79
2022/08/14 07:49:33;;;;;;;;;;;;;;;;;;5042080;28;19948;-78
2022/08/14 07:52:13;;;;;;;;;;;;;;;;;;5036684;28;20385;-81
2022/08/14 07:55:09;;;;;;;;;;;;;;;;;;5031352;28;19913;-80
2022/08/14 07:57:38;;;;;;;;;;;;;;;;;;5046263;28;19927;-78
2022/08/14 08:00:04;;;;;;;;;;;;;;;;;;5046234;28;19956;-77
2022/08/14 08:02:36;;;;;;;;;;;;;;;;;;5046448;28;20038;-78
2022/08/14 08:05:08;;;;;;;;;;;;;;;;;;5046189;28;19921;-78
2022/08/14 08:07:34;;;;;;;;;;;;;;;;;;5044815;28;20395;-77
2022/08/14 08:10:00;;;;;;;;;;;;;;;;;;5044710;28;19964;-79
2022/08/14 08:12:27;;;;;;;;;;;;;;;;;;5042952;28;19960;-78
2022/08/14 08:14:54;;;;;;;;;;;;;;;;;;5045474;28;19955;-78
2022/08/14 08:17:21;;;;;;;;;;;;;;;;;;5025649;28;19963;-78
2022/08/14 08:19:47;;;;;;;;;;;;;;;;;;5045721;28;19952;-74
2022/08/14 08:22:13;;;;;;;;;;;;;;;;;;5043957;28;20470;-77
2022/08/14 08:24:39;;;;;;;;;;;;;;;;;;5042468;28;19990;-78
2022/08/14 08:27:06;;;;;;;;;;;;;;;;;;5043709;28;19963;-75
2022/08/14 08:29:32;;;;;;;;;;;;;;;;;;5025514;28;19956;-76
2022/08/14 08:31:58;;;;;;;;;;;;;;;;;;5041334;28;19992;-77
2022/08/14 08:34:25;;;;;;;;;;;;;;;;;;5037976;28;20096;-76
2022/08/14 08:36:51;;;;;;;;;;;;;;;;;;5042728;28;19952;-77
2022/08/14 08:39:17;;;;;;;;;;;;;;;;;;5021398;28;20444;-74
2022/08/14 08:41:44;;;;;;;;;;;;;;;;;;5039347;28;20054;-81
2022/08/14 08:44:10;;;;;;;;;;;;;;;;;;5043612;28;19940;-80
2022/08/14 08:46:36;;;;;;;;;;;;;;;;;;5044146;28;20505;-82
2022/08/14 08:49:02;;;;;;;;;;;;;;;;;;5046365;28;19943;-82
2022/08/14 08:51:28;;;;;;;;;;;;;;;;;;5043815;28;19944;-82
2022/08/14 08:53:55;;;;;;;;;;;;;;;;;;5046143;28;19958;-82
2022/08/14 08:56:22;;;;;;;;;;;;;;;;;;5034609;28;19968;-82
2022/08/14 08:58:48;;;;;;;;;;;;;;;;;;5047076;28;19948;-82
2022/08/14 09:01:14;;;;;;;;;;;;;;;;;;5045892;28;19936;-82
2022/08/14 09:03:40;;;;;;;;;;;;;;;;;;5043870;28;20389;-82
2022/08/14 09:06:06;;;;;;;;;;;;;;;;;;5042473;28;19916;-82
2022/08/14 09:08:33;;;;;;;;;;;;;;;;;;5033814;28;20038;-82
2022/08/14 09:10:59;;;;;;;;;;;;;;;;;;5045468;28;19975;-82
2022/08/14 09:13:25;;;;;;;;;;;;;;;;;;5044387;28;19945;-84
2022/08/14 09:15:51;;;;;;;;;;;;;;;;;;5045299;28;19956;-84
2022/08/14 09:18:18;;;;;;;;;;;;;;;;;;5009753;28;19972;-84
2022/08/14 09:20:45;;;;;;;;;;;;;;;;;;5043012;28;20058;-82
2022/08/14 09:23:11;;;;;;;;;;;;;;;;;;5024777;28;19953;-84
2022/08/14 09:25:38;;;;;;;;;;;;;;;;;;5038293;28;20365;-82
2022/08/14 09:28:04;;;;;;;;;;;;;;;;;;5045188;28;20394;-79
2022/08/14 09:30:31;;;;;;;;;;;;;;;;;;5044851;28;20357;-80
2022/08/14 09:32:57;;;;;;;;;;;;;;;;;;5043482;28;19955;-81
2022/08/14 09:35:23;;;;;;;;;;;;;;;;;;5026407;28;19959;-80
2022/08/14 09:37:49;;;;;;;;;;;;;;;;;;5040529;28;19929;-80
2022/08/14 09:40:16;;;;;;;;;;;;;;;;;;5036815;28;19964;-80
2022/08/14 09:42:43;;;;;;;;;;;;;;;;;;5012546;28;20419;-80
2022/08/14 09:45:12;;;;;;;;;;;;;;;;;;5002869;28;19964;-80
2022/08/14 09:47:38;;;;;;;;;;;;;;;;;;5048053;28;20527;-80
2022/08/14 09:50:06;;;;;;;;;;;;;;;;;;5051623;28;19948;-80
2022/08/14 09:52:32;;;;;;;;;;;;;;;;;;5049630;28;19944;-82
2022/08/14 09:54:58;;;;;;;;;;;;;;;;;;5047454;28;20358;-81
2022/08/14 09:57:25;;;;;;;;;;;;;;;;;;5045703;28;20415;-80
2022/08/14 09:59:51;;;;;;;;;;;;;;;;;;5045259;28;19931;-80
2022/08/14 10:02:17;;;;;;;;;;;;;;;;;;5047909;28;19960;-81
2022/08/14 10:04:44;;;;;;;;;;;;;;;;;;5053305;28;19971;-79
2022/08/14 10:07:10;;;;;;;;;;;;;;;;;;5049077;28;19974;-79
2022/08/14 10:09:36;;;;;;;;;;;;;;;;;;5027705;28;19967;-79
2022/08/14 10:12:04;;;;;;;;;;;;;;;;;;5029240;28;19956;-78
2022/08/14 10:14:31;;;;;;;;;;;;;;;;;;5027964;28;19993;-79
2022/08/14 10:16:57;;;;;;;;;;;;;;;;;;5026238;28;20015;-79
2022/08/14 10:19:24;;;;;;;;;;;;;;;;;;5024582;28;19965;-81
2022/08/14 10:21:50;;;;;;;;;;;;;;;;;;5024205;28;19960;-81
2022/08/14 10:24:17;;;;;;;;;;;;;;;;;;5027268;28;19952;-81
2022/08/14 10:26:43;;;;;;;;;;;;;;;;;;5029588;28;19949;-80
2022/08/14 10:29:10;;;;;;;;;;;;;;;;;;5027601;28;19960;-81
2022/08/14 10:31:36;;;;;;;;;;;;;;;;;;5022234;28;19994;-80
2022/08/14 10:34:02;;;;;;;;;;;;;;;;;;5028979;28;19948;-81
2022/08/14 10:36:30;;;;;;;;;;;;;;;;;;5025787;28;19948;-81
2022/08/14 10:38:57;;;;;;;;;;;;;;;;;;5030062;28;19980;-80
2022/08/14 10:41:24;;;;;;;;;;;;;;;;;;5028339;28;19968;-79
2022/08/14 10:43:50;;;;;;;;;;;;;;;;;;5029113;28;19949;-80
2022/08/14 10:46:17;;;;;;;;;;;;;;;;;;5022361;28;19967;-75
2022/08/14 10:48:43;;;;;;;;;;;;;;;;;;5026657;28;19953;-75
2022/08/14 10:51:09;;;;;;;;;;;;;;;;;;5029516;28;20193;-75
2022/08/14 10:53:36;;;;;;;;;;;;;;;;;;5022376;28;20198;-76
2022/08/14 10:56:05;;;;;;;;;;;;;;;;;;5028196;28;19967;-76
2022/08/14 10:58:31;;;;;;;;;;;;;;;;;;5022525;28;19972;-78
2022/08/14 11:00:58;;;;;;;;;;;;;;;;;;5023618;28;19972;-78
2022/08/14 11:03:24;;;;;;;;;;;;;;;;;;5027663;28;19999;-79
2022/08/14 11:05:50;;;;;;;;;;;;;;;;;;5026435;28;19965;-77
2022/08/14 11:08:18;;;;;;;;;;;;;;;;;;5026283;28;20018;-78
2022/08/14 11:10:44;;;;;;;;;;;;;;;;;;5040426;28;20627;-77
2022/08/14 11:13:11;;;;;;;;;;;;;;;;;;5046192;28;20501;-76
2022/08/14 11:15:37;;;;;;;;;;;;;;;;;;5047808;28;19959;-75
2022/08/14 11:18:04;;;;;;;;;;;;;;;;;;5029498;28;19924;-78
2022/08/14 11:20:30;;;;;;;;;;;;;;;;;;5041942;28;22706;-76
2022/08/14 11:22:56;;;;;;;;;;;;;;;;;;5045173;28;19970;-76
2022/08/14 11:25:22;;;;;;;;;;;;;;;;;;5025436;28;19948;-77
2022/08/14 11:27:49;;;;;;;;;;;;;;;;;;5043625;28;20079;-77
2022/08/14 11:30:15;;;;;;;;;;;;;;;;;;5026264;28;19936;-76
2022/08/14 11:32:41;;;;;;;;;;;;;;;;;;5047081;28;19951;-76
2022/08/14 11:35:07;;;;;;;;;;;;;;;;;;5025613;28;19956;-80
2022/08/14 11:37:34;;;;;;;;;;;;;;;;;;5044424;28;20406;-80
2022/08/14 11:40:00;;;;;;;;;;;;;;;;;;5044255;28;19956;-76
2022/08/14 11:42:26;;;;;;;;;;;;;;;;;;5046479;28;19964;-76
2022/08/14 11:44:52;;;;;;;;;;;;;;;;;;5044900;28;19956;-76
2022/08/14 11:47:18;;;;;;;;;;;;;;;;;;5048442;28;19956;-78
2022/08/14 11:49:45;;;;;;;;;;;;;;;;;;5028212;28;19920;-79
2022/08/14 11:52:11;;;;;;;;;;;;;;;;;;5044272;28;19921;-77
2022/08/14 11:54:38;;;;;;;;;;;;;;;;;;5045229;28;19955;-78
2022/08/14 11:57:04;;;;;;;;;;;;;;;;;;5028044;28;19916;-78
2022/08/14 11:59:33;;;;;;;;;;;;;;;;;;5043514;28;19928;-77
2022/08/14 12:01:59;;;;;;;;;;;;;;;;;;5043089;28;20318;-74
2022/08/14 12:04:26;;;;;;;;;;;;;;;;;;5044237;28;19964;-75
2022/08/14 12:06:52;;;;;;;;;;;;;;;;;;5046114;28;19955;-76
2022/08/14 12:09:18;;;;;;;;;;;;;;;;;;5039259;28;19956;-76
2022/08/14 12:11:45;;;;;;;;;;;;;;;;;;5046846;28;20415;-76
2022/08/14 12:14:11;;;;;;;;;;;;;;;;;;5039579;28;19953;-77
2022/08/14 12:16:38;;;;;;;;;;;;;;;;;;5045355;28;19994;-75
2022/08/14 12:19:04;;;;;;;;;;;;;;;;;;5025388;28;19924;-74
2022/08/14 12:21:31;;;;;;;;;;;;;;;;;;5044984;28;20017;-77
2022/08/14 12:23:57;;;;;;;;;;;;;;;;;;5044997;28;19967;-77
2022/08/14 12:26:23;;;;;;;;;;;;;;;;;;5045523;28;19998;-77
2022/08/14 12:28:50;;;;;;;;;;;;;;;;;;5042325;28;19948;-78
2022/08/14 12:31:18;;;;;;;;;;;;;;;;;;5040832;28;20361;-75
2022/08/14 12:33:44;;;;;;;;;;;;;;;;;;5045496;28;19959;-77
2022/08/14 12:36:14;;;;;;;;;;;;;;;;;;5045178;28;19952;-79
2022/08/14 12:38:40;;;;;;;;;;;;;;;;;;5044612;28;21411;-78
2022/08/14 12:41:06;;;;;;;;;;;;;;;;;;5044009;28;19948;-76
2022/08/14 12:43:33;;;;;;;;;;;;;;;;;;5026665;28;19948;-80
2022/08/14 12:46:00;;;;;;;;;;;;;;;;;;5044719;28;19948;-78
2022/08/14 12:48:27;;;;;;;;;;;;;;;;;;5043374;28;19952;-78
2022/08/14 12:50:54;;;;;;;;;;;;;;;;;;5045733;28;19996;-79
2022/08/14 12:53:20;;;;;;;;;;;;;;;;;;5041717;28;19956;-77
2022/08/14 12:55:46;;;;;;;;;;;;;;;;;;5044848;28;19963;-78
2022/08/14 12:58:12;;;;;;;;;;;;;;;;;;5040264;28;19948;-73
2022/08/14 13:00:39;;;;;;;;;;;;;;;;;;5044601;28;19932;-73
2022/08/14 13:03:05;;;;;;;;;;;;;;;;;;5046103;28;20063;-76
2022/08/14 13:05:31;;;;;;;;;;;;;;;;;;5039684;28;20601;-77
2022/08/14 13:07:57;;;;;;;;;;;;;;;;;;5044830;28;19963;-76
2022/08/14 13:10:24;;;;;;;;;;;;;;;;;;5046253;28;20043;-76
2022/08/14 13:12:50;;;;;;;;;;;;;;;;;;5043649;28;20657;-75
2022/08/14 13:15:17;;;;;;;;;;;;;;;;;;5043116;28;19972;-76
2022/08/14 13:17:43;;;;;;;;;;;;;;;;;;5046040;28;20056;-76
2022/08/14 13:20:09;;;;;;;;;;;;;;;;;;5047409;28;19960;-76
2022/08/14 13:22:35;;;;;;;;;;;;;;;;;;5048690;28;19917;-76
2022/08/14 13:25:01;;;;;;;;;;;;;;;;;;5049189;28;19949;-77
2022/08/14 13:27:28;;;;;;;;;;;;;;;;;;5047384;28;19952;-76
2022/08/14 13:29:55;;;;;;;;;;;;;;;;;;5045458;28;19945;-76
2022/08/14 13:32:21;;;;;;;;;;;;;;;;;;5049016;28;19959;-76
2022/08/14 13:34:48;;;;;;;;;;;;;;;;;;5050853;28;19940;-77
2022/08/14 13:37:14;;;;;;;;;;;;;;;;;;5049243;28;19966;-80
2022/08/14 13:39:40;;;;;;;;;;;;;;;;;;5051311;28;19949;-78
2022/08/14 13:42:13;;;;;;;;;;;;;;;;;;5045789;28;19944;-77
2022/08/14 13:44:39;;;;;;;;;;;;;;;;;;5044863;28;21674;-78
2022/08/14 13:47:06;;;;;;;;;;;;;;;;;;5047170;28;19948;-76
2022/08/14 13:49:32;;;;;;;;;;;;;;;;;;5046816;28;20344;-80
2022/08/14 13:51:58;;;;;;;;;;;;;;;;;;5046442;28;19960;-78
2022/08/14 13:54:24;;;;;;;;;;;;;;;;;;5047969;28;19968;-78
2022/08/14 13:56:51;;;;;;;;;;;;;;;;;;5049085;28;19979;-77
2022/08/14 13:59:17;;;;;;;;;;;;;;;;;;5028453;28;20026;-77
2022/08/14 14:01:44;;;;;;;;;;;;;;;;;;5046392;28;19955;-77
2022/08/14 14:04:10;;;;;;;;;;;;;;;;;;5049421;28;20030;-77
2022/08/14 14:06:37;;;;;;;;;;;;;;;;;;5047872;28;19971;-77
2022/08/14 14:09:03;;;;;;;;;;;;;;;;;;5045797;28;20639;-77
2022/08/14 14:11:29;;;;;;;;;;;;;;;;;;5046328;28;19968;-77
2022/08/14 14:13:56;;;;;;;;;;;;;;;;;;5046773;28;19959;-77
2022/08/14 14:16:22;;;;;;;;;;;;;;;;;;5048002;28;19960;-77
2022/08/14 14:18:49;;;;;;;;;;;;;;;;;;5026789;28;19933;-77
2022/08/14 14:21:15;;;;;;;;;;;;;;;;;;5046916;28;19952;-76
2022/08/14 14:23:43;;;;;;;;;;;;;;;;;;5030035;28;20018;-77
2022/08/14 14:26:09;;;;;;;;;;;;;;;;;;5050003;28;19944;-77
2022/08/14 14:28:36;;;;;;;;;;;;;;;;;;5045020;28;19949;-77
2022/08/14 14:31:02;;;;;;;;;;;;;;;;;;5048093;28;19952;-77
2022/08/14 14:33:29;;;;;;;;;;;;;;;;;;5044879;28;19986;-77
2022/08/14 14:35:55;;;;;;;;;;;;;;;;;;5047049;28;19917;-76
2022/08/14 14:38:24;;;;;;;;;;;;;;;;;;5046470;28;20368;-77
2022/08/14 14:40:51;;;;;;;;;;;;;;;;;;5031822;28;20478;-77
2022/08/14 14:43:17;;;;;;;;;;;;;;;;;;5048270;28;20388;-77
2022/08/14 14:45:44;;;;;;;;;;;;;;;;;;5048322;28;20002;-77
2022/08/14 14:48:11;;;;;;;;;;;;;;;;;;5045023;28;19956;-77
2022/08/14 14:50:38;;;;;;;;;;;;;;;;;;5047279;28;19971;-77
2022/08/14 14:53:04;;;;;;;;;;;;;;;;;;5039423;28;20020;-76
2022/08/14 14:55:30;;;;;;;;;;;;;;;;;;5045564;28;20546;-76
2022/08/14 14:57:57;;;;;;;;;;;;;;;;;;5044160;28;19952;-76
2022/08/14 15:00:23;;;;;;;;;;;;;;;;;;5028211;28;20476;-76
2022/08/14 15:02:49;;;;;;;;;;;;;;;;;;5031767;28;19956;-79
2022/08/14 15:05:16;;;;;;;;;;;;;;;;;;5048484;28;19952;-82
2022/08/14 15:07:42;;;;;;;;;;;;;;;;;;5031667;28;19955;-86
2022/08/14 15:10:08;;;;;;;;;;;;;;;;;;5040342;28;20408;-85
2022/08/14 15:12:34;;;;;;;;;;;;;;;;;;5045662;28;20022;-87
2022/08/14 15:15:00;;;;;;;;;;;;;;;;;;5047543;28;19964;-88
2022/08/14 15:17:34;;;;;;;;;;;;;;;;;;5046973;28;19971;-75
2022/08/14 15:20:02;;;;;;;;;;;;;;;;;;5045778;28;20004;-74
2022/08/14 15:22:29;;;;;;;;;;;;;;;;;;5038708;28;19949;-73
2022/08/14 15:24:55;;;;;;;;;;;;;;;;;;5043511;28;19921;-76
2022/08/14 15:27:22;;;;;;;;;;;;;;;;;;5044833;28;19964;-74
2022/08/14 15:29:48;;;;;;;;;;;;;;;;;;5049199;28;20002;-89
2022/08/14 15:32:15;;;;;;;;;;;;;;;;;;5050332;28;19913;-85
2022/08/14 15:34:44;;;;;;;;;;;;;;;;;;5023706;28;20510;-86
2022/08/14 15:37:10;;;;;;;;;;;;;;;;;;5044823;28;19917;-78
2022/08/14 15:39:36;;;;;;;;;;;;;;;;;;5053693;28;19928;-93
2022/08/14 15:42:03;;;;;;;;;;;;;;;;;;5056055;28;19967;-91
2022/08/14 15:44:29;;;;;;;;;;;;;;;;;;5037597;28;19923;-91
2022/08/14 15:46:55;;;;;;;;;;;;;;;;;;5052325;28;19921;-90
2022/08/14 15:49:23;;;;;;;;;;;;;;;;;;5047217;28;19952;-91
2022/08/14 15:51:49;;;;;;;;;;;;;;;;;;5056675;28;19924;-91
2022/08/14 15:54:15;;;;;;;;;;;;;;;;;;5056945;28;19913;-91
2022/08/14 15:56:42;;;;;;;;;;;;;;;;;;5050720;28;19916;-90
2022/08/14 15:59:08;;;;;;;;;;;;;;;;;;5041815;28;19921;-89
2022/08/14 16:01:34;;;;;;;;;;;;;;;;;;5051710;28;19913;-89
2022/08/14 16:04:00;;;;;;;;;;;;;;;;;;5053996;28;19913;-89
2022/08/14 16:06:28;;;;;;;;;;;;;;;;;;5052096;28;19956;-89
2022/08/14 16:08:55;;;;;;;;;;;;;;;;;;5053797;28;19917;-88
2022/08/14 16:11:21;;;;;;;;;;;;;;;;;;5053544;28;20354;-88
2022/08/14 16:13:48;;;;;;;;;;;;;;;;;;5053296;28;19913;-87
2022/08/14 16:16:15;;;;;;;;;;;;;;;;;;5040823;28;19921;-84
2022/08/14 16:18:42;;;;;;;;;;;;;;;;;;5030271;28;19967;-87
2022/08/14 16:21:08;;;;;;;;;;;;;;;;;;5050950;28;19920;-90
2022/08/14 16:23:34;;;;;;;;;;;;;;;;;;5052271;28;19923;-87
2022/08/14 16:26:00;;;;;;;;;;;;;;;;;;5050588;28;19960;-88
2022/08/14 16:28:26;;;;;;;;;;;;;;;;;;5049441;28;19929;-88
2022/08/14 16:30:53;;;;;;;;;;;;;;;;;;5050955;28;19917;-86
2022/08/14 16:33:19;;;;;;;;;;;;;;;;;;5048479;28;19921;-88
2022/08/14 16:35:47;;;;;;;;;;;;;;;;;;5050700;28;19924;-88
2022/08/14 16:38:13;;;;;;;;;;;;;;;;;;5032532;28;20380;-88
2022/08/14 16:40:39;;;;;;;;;;;;;;;;;;5052435;28;19923;-88
2022/08/14 16:43:06;;;;;;;;;;;;;;;;;;5052758;28;19929;-89
2022/08/14 16:45:32;;;;;;;;;;;;;;;;;;5045894;28;19921;-89
2022/08/14 16:47:58;;;;;;;;;;;;;;;;;;5036359;28;19913;-88
2022/08/14 16:50:24;;;;;;;;;;;;;;;;;;5047331;28;19919;-87
2022/08/14 16:52:50;;;;;;;;;;;;;;;;;;5053698;28;19925;-87
2022/08/14 16:55:17;;;;;;;;;;;;;;;;;;5050466;28;19929;-88
2022/08/14 16:57:43;;;;;;;;;;;;;;;;;;5051108;28;20615;-90